createdAt,value
2019-03-01T00:00:51.724Z,17.27
2019-03-01T00:03:39.713Z,18.67
2019-03-01T00:09:43.468Z,16.67
2019-03-01T00:12:50.685Z,15.37
2019-03-01T00:15:31.448Z,15.88
2019-03-01T00:21:21.139Z,16.15
2019-03-01T00:24:12.540Z,16.55
2019-03-01T00:27:05.105Z,16.95
2019-03-01T00:30:12.339Z,18.70
2019-03-01T00:33:02.929Z,15.83
2019-03-01T00:35:54.585Z,18.27
2019-03-01T00:39:01.864Z,18.23
2019-03-01T00:42:09.371Z,16.17
2019-03-01T00:44:57.347Z,17.62
2019-03-01T00:47:45.360Z,17.10
2019-03-01T00:50:33.452Z,15.83
2019-03-01T00:53:21.491Z,15.03
2019-03-01T00:56:09.468Z,16.07
2019-03-01T00:58:57.820Z,17.05
2019-03-01T01:01:45.865Z,15.08
2019-03-01T01:04:33.956Z,14.33
2019-03-01T01:07:21.946Z,13.88
2019-03-01T01:10:09.994Z,15.38
2019-03-01T01:12:57.963Z,14.58
2019-03-01T01:15:39.372Z,14.43
2019-03-01T01:18:19.708Z,13.90
2019-03-01T01:21:00.390Z,14.65
2019-03-01T01:23:44.385Z,11.10
2019-03-01T01:26:25.162Z,12.20
2019-03-01T01:29:06.122Z,12.70
2019-03-01T01:31:47.220Z,12.25
2019-03-01T01:34:27.735Z,12.50
2019-03-01T01:37:08.834Z,12.58
2019-03-01T01:39:49.812Z,10.68
2019-03-01T01:42:30.917Z,12.40
2019-03-01T01:45:11.686Z,10.63
2019-03-01T01:47:52.585Z,12.58
2019-03-01T01:50:33.152Z,11.05
2019-03-01T01:53:13.825Z,11.17
2019-03-01T01:55:54.544Z,10.90
2019-03-01T01:58:35.169Z,10.70
2019-03-01T02:01:16.169Z,10.98
2019-03-01T02:03:56.940Z,10.75
2019-03-01T02:06:37.814Z,10.65
2019-03-01T02:09:19.337Z,10.82
2019-03-01T02:12:00.314Z,9.55
2019-03-01T02:14:40.961Z,10.58
2019-03-01T02:17:22.036Z,12.07
2019-03-01T02:20:02.608Z,9.25
2019-03-01T02:22:43.477Z,11.48
2019-03-01T02:25:24.700Z,10.60
2019-03-01T02:28:05.405Z,11.50
2019-03-01T02:30:46.489Z,10.65
2019-03-01T02:33:27.225Z,9.93
2019-03-01T02:36:07.973Z,9.05
2019-03-01T02:38:49.003Z,11.83
2019-03-01T02:41:29.667Z,13.27
2019-03-01T02:43:58.765Z,13.03
2019-03-01T02:46:39.705Z,12.98
2019-03-01T02:49:20.525Z,13.05
2019-03-01T02:52:01.338Z,12.35
2019-03-01T02:54:41.778Z,13.35
2019-03-01T02:57:22.409Z,14.55
2019-03-01T03:00:03.164Z,12.55
2019-03-01T03:02:44.028Z,15.05
2019-03-01T03:05:24.697Z,13.75
2019-03-01T03:08:07.466Z,15.38
2019-03-01T03:10:48.292Z,15.13
2019-03-01T03:13:29.385Z,16.52
2019-03-01T03:16:10.153Z,15.63
2019-03-01T03:18:51.046Z,14.98
2019-03-01T03:21:31.769Z,16.45
2019-03-01T03:24:12.282Z,18.65
2019-03-01T03:26:53.093Z,18.45
2019-03-01T03:29:33.897Z,18.17
2019-03-01T03:32:14.741Z,17.55
2019-03-01T03:34:55.424Z,19.27
2019-03-01T03:37:35.957Z,17.90
2019-03-01T03:40:16.770Z,16.70
2019-03-01T03:42:57.507Z,19.90
2019-03-01T03:45:38.173Z,20.65
2019-03-01T03:48:18.900Z,21.52
2019-03-01T03:50:59.538Z,20.65
2019-03-01T03:53:40.419Z,22.27
2019-03-01T03:56:21.666Z,21.93
2019-03-01T03:59:02.344Z,22.47
2019-03-01T04:01:43.470Z,22.62
2019-03-01T04:04:24.427Z,21.02
2019-03-01T04:07:05.640Z,26.82
2019-03-01T04:09:46.282Z,23.73
2019-03-01T04:12:27.261Z,27.95
2019-03-01T04:15:07.869Z,21.48
2019-03-01T04:17:48.501Z,26.23
2019-03-01T04:20:29.563Z,24.85
2019-03-01T04:23:09.875Z,24.40
2019-03-01T04:25:50.629Z,27.43
2019-03-01T04:28:31.456Z,23.38
2019-03-01T04:31:11.936Z,24.43
2019-03-01T04:33:52.471Z,24.47
2019-03-01T04:36:33.044Z,25.48
2019-03-01T04:39:13.385Z,23.92
2019-03-01T04:41:54.288Z,27.17
2019-03-01T04:44:34.966Z,24.30
2019-03-01T04:47:15.893Z,25.43
2019-03-01T04:49:57.136Z,25.45
2019-03-01T04:52:38.321Z,25.60
2019-03-01T04:55:19.025Z,24.82
2019-03-01T04:58:00.031Z,25.67
2019-03-01T05:00:41.096Z,25.30
2019-03-01T05:03:22.178Z,26.60
2019-03-01T05:06:03.332Z,26.45
2019-03-01T05:08:44.252Z,24.20
2019-03-01T05:11:24.808Z,26.10
2019-03-01T05:14:05.939Z,26.25
2019-03-01T05:16:46.610Z,24.95
2019-03-01T05:19:27.283Z,24.75
2019-03-01T05:22:08.118Z,28.30
2019-03-01T05:24:48.948Z,29.25
2019-03-01T05:27:29.316Z,24.27
2019-03-01T05:30:09.560Z,29.20
2019-03-01T05:32:50.360Z,28.20
2019-03-01T05:35:30.814Z,27.83
2019-03-01T05:38:11.750Z,35.00
2019-03-01T05:40:52.971Z,32.78
2019-03-01T05:43:33.748Z,30.40
2019-03-01T05:46:14.636Z,34.43
2019-03-01T05:48:55.078Z,29.20
2019-03-01T05:51:55.787Z,30.80
2019-03-01T05:54:25.912Z,30.62
2019-03-01T05:57:06.745Z,30.45
2019-03-01T05:59:47.525Z,30.43
2019-03-01T06:02:28.316Z,29.83
2019-03-01T06:05:09.326Z,32.45
2019-03-01T06:07:49.643Z,31.68
2019-03-01T06:10:30.202Z,27.00
2019-03-01T06:13:11.508Z,30.15
2019-03-01T06:15:52.625Z,26.63
2019-03-01T06:18:33.599Z,29.85
2019-03-01T06:21:14.641Z,29.48
2019-03-01T06:23:55.544Z,31.20
2019-03-01T06:26:36.148Z,28.73
2019-03-01T06:29:16.829Z,30.17
2019-03-01T06:31:57.524Z,24.47
2019-03-01T06:34:38.304Z,26.48
2019-03-01T06:37:19.311Z,26.90
2019-03-01T06:42:56.831Z,27.27
2019-03-01T06:45:37.596Z,25.37
2019-03-01T06:51:31.772Z,28.20
2019-03-01T06:54:12.358Z,26.30
2019-03-01T06:56:52.784Z,25.37
2019-03-01T06:59:33.275Z,25.05
2019-03-01T07:02:17.295Z,24.35
2019-03-01T07:04:58.570Z,21.52
2019-03-01T07:07:39.229Z,22.77
2019-03-01T07:10:20.155Z,20.62
2019-03-01T07:13:01.274Z,21.05
2019-03-01T07:15:42.111Z,25.00
2019-03-01T07:18:22.962Z,24.97
2019-03-01T07:21:04.158Z,23.95
2019-03-01T07:23:44.656Z,23.67
2019-03-01T07:26:25.307Z,25.02
2019-03-01T07:29:05.811Z,22.65
2019-03-01T07:31:46.472Z,22.98
2019-03-01T07:34:27.013Z,23.35
2019-03-01T07:37:08.133Z,21.15
2019-03-01T07:39:48.816Z,25.08
2019-03-01T07:42:29.425Z,17.77
2019-03-01T07:45:10.379Z,21.00
2019-03-01T07:47:51.220Z,19.57
2019-03-01T07:50:32.025Z,18.70
2019-03-01T07:53:12.590Z,20.32
2019-03-01T07:55:53.469Z,17.97
2019-03-01T07:58:34.472Z,19.07
2019-03-01T08:01:15.374Z,22.13
2019-03-01T08:03:56.264Z,19.05
2019-03-01T08:06:37.401Z,19.25
2019-03-01T08:09:18.324Z,19.25
2019-03-01T08:11:59.355Z,17.70
2019-03-01T08:14:40.370Z,18.05
2019-03-01T08:17:20.931Z,18.50
2019-03-01T08:20:01.846Z,15.70
2019-03-01T08:22:48.696Z,16.37
2019-03-01T08:25:25.312Z,14.60
2019-03-01T08:28:06.224Z,16.73
2019-03-01T08:30:46.950Z,12.80
2019-03-01T08:33:27.886Z,12.90
2019-03-01T08:36:08.309Z,12.78
2019-03-01T08:41:48.571Z,11.77
2019-03-01T08:44:29.183Z,10.40
2019-03-01T08:47:09.514Z,10.05
2019-03-01T08:49:50.201Z,9.18
2019-03-01T08:52:30.929Z,7.75
2019-03-01T08:55:11.645Z,7.95
2019-03-01T08:57:52.937Z,7.80
2019-03-01T09:00:33.528Z,8.70
2019-03-01T09:03:17.244Z,9.38
2019-03-01T09:05:57.135Z,7.60
2019-03-01T09:08:38.094Z,6.22
2019-03-01T09:11:19.106Z,5.58
2019-03-01T09:13:59.640Z,5.22
2019-03-01T09:16:41.081Z,4.00
2019-03-01T09:19:25.057Z,3.70
2019-03-01T09:22:05.432Z,3.40
2019-03-01T09:24:46.197Z,3.35
2019-03-01T09:27:30.107Z,3.42
2019-03-01T09:29:59.456Z,3.30
2019-03-01T09:32:47.413Z,3.50
2019-03-01T09:35:54.464Z,4.78
2019-03-01T09:38:42.929Z,3.42
2019-03-01T09:41:32.210Z,3.05
2019-03-01T09:44:20.179Z,3.58
2019-03-01T09:47:02.520Z,3.27
2019-03-01T09:49:43.070Z,3.05
2019-03-01T09:52:24.531Z,3.30
2019-03-01T09:55:05.582Z,3.20
2019-03-01T09:57:46.510Z,3.80
2019-03-01T10:00:27.233Z,3.10
2019-03-01T10:03:07.872Z,3.10
2019-03-01T10:05:48.815Z,4.20
2019-03-01T10:08:29.665Z,3.72
2019-03-01T10:11:10.474Z,3.85
2019-03-01T10:13:51.012Z,3.27
2019-03-01T10:16:31.973Z,3.40
2019-03-01T10:19:13.240Z,3.35
2019-03-01T10:21:53.969Z,3.80
2019-03-01T10:24:35.241Z,3.37
2019-03-01T10:27:15.583Z,4.15
2019-03-01T10:29:56.180Z,3.20
2019-03-01T10:32:37.069Z,4.22
2019-03-01T10:35:17.988Z,3.80
2019-03-01T10:37:58.886Z,3.37
2019-03-01T10:40:39.820Z,3.87
2019-03-01T10:43:20.842Z,4.40
2019-03-01T10:46:01.685Z,4.08
2019-03-01T10:48:42.472Z,4.00
2019-03-01T10:51:23.121Z,4.20
2019-03-01T10:54:03.672Z,5.30
2019-03-01T10:56:44.607Z,6.20
2019-03-01T10:59:25.063Z,7.05
2019-03-01T11:02:05.709Z,6.90
2019-03-01T11:04:46.653Z,8.18
2019-03-01T11:07:27.450Z,8.43
2019-03-01T11:10:08.111Z,9.53
2019-03-01T11:12:48.603Z,8.85
2019-03-01T11:15:29.230Z,9.03
2019-03-01T11:18:10.123Z,10.45
2019-03-01T11:20:50.573Z,9.55
2019-03-01T11:23:31.256Z,11.30
2019-03-01T11:26:12.128Z,10.13
2019-03-01T11:28:52.723Z,10.10
2019-03-01T11:31:33.382Z,12.35
2019-03-01T11:34:14.067Z,11.87
2019-03-01T11:36:54.888Z,13.22
2019-03-01T11:39:35.347Z,12.90
2019-03-01T11:42:16.222Z,13.22
2019-03-01T11:44:57.366Z,14.63
2019-03-01T11:47:38.108Z,15.58
2019-03-01T11:50:20.525Z,14.27
2019-03-01T11:53:02.114Z,15.20
2019-03-01T11:55:43.223Z,14.93
2019-03-01T11:58:23.977Z,19.37
2019-03-01T12:01:04.645Z,22.17
2019-03-01T12:03:45.550Z,24.67
2019-03-01T12:06:26.045Z,24.37
2019-03-01T12:09:06.966Z,26.23
2019-03-01T12:11:47.752Z,27.55
2019-03-01T12:14:28.889Z,27.07
2019-03-01T12:17:09.754Z,30.70
2019-03-01T12:19:50.544Z,28.70
2019-03-01T12:22:31.315Z,29.40
2019-03-01T12:25:11.773Z,31.93
2019-03-01T12:27:52.737Z,33.45
2019-03-01T12:30:33.357Z,35.05
2019-03-01T12:33:14.430Z,33.80
2019-03-01T12:35:55.404Z,36.87
2019-03-01T12:38:36.165Z,37.55
2019-03-01T12:41:18.260Z,38.63
2019-03-01T12:43:59.377Z,41.42
2019-03-01T12:46:29.708Z,43.50
2019-03-01T12:49:14.292Z,42.13
2019-03-01T12:51:54.998Z,43.02
2019-03-01T12:54:37.700Z,43.73
2019-03-01T12:57:18.524Z,43.02
2019-03-01T12:59:59.294Z,43.80
2019-03-01T13:02:39.665Z,47.77
2019-03-01T13:05:20.564Z,49.00
2019-03-01T13:08:00.900Z,48.90
2019-03-01T13:10:41.723Z,51.90
2019-03-01T13:13:22.601Z,53.97
2019-03-01T13:16:03.120Z,52.58
2019-03-01T13:18:43.817Z,53.90
2019-03-01T13:21:24.561Z,54.75
2019-03-01T13:24:05.315Z,55.50
2019-03-01T13:26:46.170Z,56.05
2019-03-01T13:29:27.038Z,58.28
2019-03-01T13:32:08.100Z,56.60
2019-03-01T13:34:49.525Z,58.13
2019-03-01T13:37:20.342Z,58.75
2019-03-01T13:39:49.612Z,58.48
2019-03-01T13:42:37.607Z,63.63
2019-03-01T13:45:25.694Z,63.33
2019-03-01T13:48:06.752Z,59.80
2019-03-01T13:50:47.498Z,58.98
2019-03-01T13:53:30.233Z,60.67
2019-03-01T13:56:10.973Z,64.25
2019-03-01T13:58:51.627Z,62.73
2019-03-01T14:01:32.219Z,64.85
2019-03-01T14:04:12.954Z,67.15
2019-03-01T14:06:53.932Z,68.52
2019-03-01T14:09:34.845Z,71.47
2019-03-01T14:12:15.450Z,65.97
2019-03-01T14:14:59.282Z,70.25
2019-03-01T14:17:38.953Z,68.50
2019-03-01T14:20:21.107Z,67.35
2019-03-01T14:23:02.556Z,71.07
2019-03-01T14:25:43.332Z,69.37
2019-03-01T14:28:24.140Z,72.00
2019-03-01T14:31:07.512Z,73.73
2019-03-01T14:33:47.853Z,75.92
2019-03-01T14:36:29.137Z,74.20
2019-03-01T14:39:09.798Z,72.42
2019-03-01T14:41:50.372Z,71.92
2019-03-01T14:44:33.834Z,68.40
2019-03-01T14:47:13.904Z,71.42
2019-03-01T14:49:57.661Z,65.80
2019-03-01T14:52:37.588Z,65.92
2019-03-01T14:55:19.831Z,67.17
2019-03-01T14:58:01.208Z,67.10
2019-03-01T15:00:41.589Z,63.95
2019-03-01T15:03:22.287Z,69.45
2019-03-01T15:06:02.939Z,67.22
2019-03-01T15:08:44.995Z,63.80
2019-03-01T15:11:25.812Z,64.82
2019-03-01T15:14:12.137Z,64.87
2019-03-01T15:16:50.117Z,64.62
2019-03-01T15:19:30.793Z,66.00
2019-03-01T15:22:13.026Z,70.80
2019-03-01T15:24:54.345Z,64.67
2019-03-01T15:27:39.734Z,63.57
2019-03-01T15:30:17.758Z,63.68
2019-03-01T15:32:58.430Z,66.90
2019-03-01T15:35:39.782Z,65.27
2019-03-01T15:38:23.916Z,64.17
2019-03-01T15:41:06.337Z,62.58
2019-03-01T15:43:46.361Z,64.25
2019-03-01T15:46:27.101Z,63.48
2019-03-01T15:49:08.043Z,61.77
2019-03-01T15:51:48.990Z,61.90
2019-03-01T15:54:32.450Z,62.45
2019-03-01T15:57:00.565Z,60.25
2019-03-01T15:59:48.940Z,59.35
2019-03-01T16:02:37.133Z,61.98
2019-03-01T16:05:25.153Z,61.23
2019-03-01T16:08:13.146Z,61.68
2019-03-01T16:11:01.126Z,66.57
2019-03-01T16:13:49.453Z,62.53
2019-03-01T16:16:38.775Z,61.25
2019-03-01T16:19:26.793Z,62.93
2019-03-01T16:22:15.470Z,63.60
2019-03-01T16:25:07.171Z,63.58
2019-03-01T16:27:55.137Z,60.70
2019-03-01T16:30:44.744Z,62.55
2019-03-01T16:33:32.719Z,63.42
2019-03-01T16:39:35.156Z,63.35
2019-03-01T16:42:23.705Z,62.05
2019-03-01T16:45:12.004Z,60.40
2019-03-01T16:48:00.929Z,65.08
2019-03-01T16:50:43.903Z,64.17
2019-03-01T16:53:25.031Z,61.65
2019-03-01T16:56:05.785Z,63.70
2019-03-01T16:58:46.557Z,67.83
2019-03-01T17:01:29.783Z,61.95
2019-03-01T17:04:10.355Z,65.52
2019-03-01T17:06:50.775Z,63.87
2019-03-01T17:09:31.609Z,65.47
2019-03-01T17:12:13.897Z,62.17
2019-03-01T17:14:55.332Z,65.90
2019-03-01T17:17:36.913Z,64.45
2019-03-01T17:20:18.887Z,63.68
2019-03-01T17:23:03.139Z,64.50
2019-03-01T17:25:42.144Z,62.78
2019-03-01T17:28:26.520Z,62.17
2019-03-01T17:31:05.805Z,61.45
2019-03-01T17:33:48.825Z,62.15
2019-03-01T17:36:29.085Z,60.78
2019-03-01T17:39:09.785Z,57.95
2019-03-01T17:41:50.524Z,60.90
2019-03-01T17:44:34.776Z,60.23
2019-03-01T17:47:16.174Z,50.30
2019-03-01T17:49:57.291Z,49.08
2019-03-01T17:52:37.976Z,51.42
2019-03-01T17:55:18.861Z,52.98
2019-03-01T17:57:59.432Z,52.17
2019-03-01T18:00:40.176Z,49.33
2019-03-01T18:03:20.874Z,48.30
2019-03-01T18:06:01.578Z,50.60
2019-03-01T18:08:42.025Z,49.75
2019-03-01T18:11:23.081Z,49.70
2019-03-01T18:14:04.015Z,48.67
2019-03-01T18:16:44.711Z,48.60
2019-03-01T18:19:26.789Z,44.27
2019-03-01T18:22:08.299Z,47.00
2019-03-01T18:24:49.962Z,46.63
2019-03-01T18:27:31.855Z,44.55
2019-03-01T18:30:16.037Z,45.40
2019-03-01T18:32:55.857Z,44.03
2019-03-01T18:35:36.502Z,40.80
2019-03-01T18:38:17.318Z,37.57
2019-03-01T18:40:58.766Z,35.95
2019-03-01T18:43:39.840Z,35.05
2019-03-01T18:46:21.265Z,33.00
2019-03-01T18:49:02.475Z,31.70
2019-03-01T18:51:43.968Z,32.70
2019-03-01T18:54:25.181Z,32.33
2019-03-01T18:57:05.751Z,32.10
2019-03-01T18:59:46.392Z,31.10
2019-03-01T19:02:28.460Z,29.20
2019-03-01T19:05:08.836Z,30.00
2019-03-01T19:07:49.393Z,28.80
2019-03-01T19:10:29.912Z,27.67
2019-03-01T19:13:12.463Z,28.20
2019-03-01T19:15:54.746Z,26.35
2019-03-01T19:18:35.505Z,25.77
2019-03-01T19:21:17.304Z,26.85
2019-03-01T19:23:58.848Z,24.45
2019-03-01T19:26:39.568Z,25.45
2019-03-01T19:29:20.549Z,23.00
2019-03-01T19:32:01.113Z,23.52
2019-03-01T19:34:41.704Z,21.93
2019-03-01T19:37:22.385Z,23.32
2019-03-01T19:40:03.351Z,21.70
2019-03-01T19:42:44.058Z,21.85
2019-03-01T19:45:24.677Z,21.25
2019-03-01T19:48:05.292Z,20.72
2019-03-01T19:50:46.717Z,19.48
2019-03-01T19:53:28.068Z,19.10
2019-03-01T19:56:08.787Z,18.52
2019-03-01T19:58:49.304Z,17.60
2019-03-01T20:01:29.938Z,16.40
2019-03-01T20:04:17.803Z,18.65
2019-03-01T20:06:57.668Z,18.52
2019-03-01T20:09:39.721Z,19.07
2019-03-01T20:12:21.686Z,19.00
2019-03-01T20:15:02.779Z,18.12
2019-03-01T20:17:44.596Z,19.15
2019-03-01T20:20:25.411Z,19.55
2019-03-01T20:23:06.143Z,19.85
2019-03-01T20:25:47.538Z,22.20
2019-03-01T20:28:29.583Z,21.68
2019-03-01T20:31:10.502Z,24.05
2019-03-01T20:33:51.124Z,25.97
2019-03-01T20:36:31.956Z,23.97
2019-03-01T20:39:15.635Z,27.22
2019-03-01T20:41:55.189Z,28.42
2019-03-01T20:44:35.527Z,31.50
2019-03-01T20:47:18.367Z,32.20
2019-03-01T20:49:59.211Z,29.87
2019-03-01T20:52:39.767Z,31.55
2019-03-01T20:55:20.624Z,31.15
2019-03-01T20:58:03.058Z,30.25
2019-03-01T21:00:44.380Z,30.77
2019-03-01T21:03:29.792Z,29.37
2019-03-01T21:06:08.013Z,29.57
2019-03-01T21:08:48.812Z,30.00
2019-03-01T21:11:29.564Z,29.45
2019-03-01T21:14:10.504Z,29.90
2019-03-01T21:16:50.963Z,30.97
2019-03-01T21:19:31.916Z,28.95
2019-03-01T21:22:12.968Z,28.43
2019-03-01T21:24:53.696Z,30.88
2019-03-01T21:27:34.613Z,31.48
2019-03-01T21:30:03.812Z,31.75
2019-03-01T21:32:51.880Z,31.93
2019-03-01T21:35:39.868Z,31.12
2019-03-01T21:38:27.817Z,31.37
2019-03-01T21:41:15.767Z,33.30
2019-03-01T21:44:03.801Z,33.25
2019-03-01T21:46:51.795Z,33.38
2019-03-01T21:49:32.714Z,33.58
2019-03-01T21:52:13.435Z,37.33
2019-03-01T21:54:54.387Z,34.80
2019-03-01T21:57:34.708Z,35.33
2019-03-01T22:00:15.230Z,36.10
2019-03-01T22:02:55.740Z,37.83
2019-03-01T22:05:36.552Z,34.10
2019-03-01T22:08:17.422Z,35.15
2019-03-01T22:10:57.865Z,37.50
2019-03-01T22:13:38.359Z,35.38
2019-03-01T22:16:18.898Z,37.50
2019-03-01T22:28:36.231Z,36.03
2019-03-01T22:31:17.695Z,34.83
2019-03-01T22:33:58.335Z,33.05
2019-03-01T22:36:39.175Z,34.83
2019-03-01T22:39:20.159Z,33.88
2019-03-01T22:42:00.891Z,35.75
2019-03-01T22:44:43.757Z,34.20
2019-03-01T22:47:24.485Z,36.05
2019-03-01T22:50:06.946Z,34.00
2019-03-01T22:52:48.683Z,35.80
2019-03-01T22:55:29.820Z,35.80
2019-03-01T22:58:11.028Z,34.83
2019-03-01T23:01:11.433Z,38.98
2019-03-01T23:03:54.812Z,35.48
2019-03-01T23:06:34.815Z,36.75
2019-03-01T23:09:17.130Z,36.25
2019-03-01T23:11:57.814Z,36.58
2019-03-01T23:14:38.841Z,35.78
2019-03-01T23:17:19.574Z,35.03
2019-03-01T23:20:00.236Z,34.70
2019-03-01T23:22:42.731Z,34.90
2019-03-01T23:25:23.754Z,34.60
2019-03-01T23:28:08.030Z,34.23
2019-03-01T23:30:47.457Z,35.38
2019-03-01T23:33:31.651Z,36.08
2019-03-01T23:36:11.084Z,34.30
2019-03-01T23:44:52.467Z,35.17
2019-03-01T23:47:34.739Z,32.78
2019-03-01T23:50:16.107Z,34.93
2019-03-01T23:52:58.709Z,34.13
2019-03-01T23:55:39.442Z,35.50
2019-03-01T23:58:20.212Z,36.33
